createdAt,value
2023-01-05T00:00:56.170Z,14.38
2023-01-05T00:03:22.742Z,14.54
2023-01-05T00:05:49.216Z,14.61
2023-01-05T00:08:15.536Z,14.39
2023-01-05T00:11:00.508Z,14.26
2023-01-05T00:13:45.229Z,14.41
2023-01-05T00:16:33.708Z,14.57
2023-01-05T00:19:18.511Z,14.75
2023-01-05T00:22:03.332Z,14.32
2023-01-05T00:24:31.714Z,14.64
2023-01-05T00:26:58.148Z,14.02
2023-01-05T00:29:24.538Z,13.91
2023-01-05T00:31:50.995Z,13.94
2023-01-05T00:34:17.360Z,13.64
2023-01-05T00:36:43.776Z,13.92
2023-01-05T00:39:10.247Z,14.24
2023-01-05T00:41:36.634Z,14.25
2023-01-05T00:44:02.979Z,14.03
2023-01-05T00:46:29.300Z,14.26
2023-01-05T00:48:55.670Z,14.29
2023-01-05T00:51:21.995Z,14.25
2023-01-05T00:53:48.789Z,13.36
2023-01-05T00:56:15.482Z,14.32
2023-01-05T00:58:41.880Z,14.05
2023-01-05T01:01:12.635Z,14.23
2023-01-05T01:03:39.544Z,14.24
2023-01-05T01:06:06.149Z,13.70
2023-01-05T01:08:32.506Z,14.30
2023-01-05T01:11:03.773Z,14.09
2023-01-05T01:13:30.139Z,14.40
2023-01-05T01:15:56.463Z,14.27
2023-01-05T01:18:23.359Z,13.81
2023-01-05T01:20:49.740Z,14.19
2023-01-05T01:23:16.084Z,14.25
2023-01-05T01:25:42.410Z,14.17
2023-01-05T01:28:08.754Z,13.93
2023-01-05T01:30:38.486Z,14.23
2023-01-05T01:33:05.337Z,13.43
2023-01-05T01:35:31.714Z,13.64
2023-01-05T01:37:58.068Z,13.93
2023-01-05T01:40:24.414Z,14.30
2023-01-05T01:42:50.770Z,13.55
2023-01-05T01:45:22.906Z,13.71
2023-01-05T01:47:58.148Z,13.94
2023-01-05T01:50:35.953Z,14.30
2023-01-05T01:53:07.787Z,14.43
2023-01-05T01:55:35.527Z,14.41
2023-01-05T01:58:05.399Z,14.44
2023-01-05T02:00:31.753Z,14.13
2023-01-05T02:02:58.387Z,13.77
2023-01-05T02:05:29.406Z,13.73
2023-01-05T02:07:55.903Z,13.75
2023-01-05T02:10:29.782Z,14.01
2023-01-05T02:13:35.185Z,14.12
2023-01-05T02:16:07.553Z,14.04
2023-01-05T02:18:57.436Z,13.93
2023-01-05T02:21:55.460Z,14.08
2023-01-05T02:24:59.730Z,14.28
2023-01-05T02:27:30.591Z,14.16
2023-01-05T02:30:39.277Z,13.94
2023-01-05T02:33:25.201Z,13.84
2023-01-05T02:36:33.517Z,13.94
2023-01-05T02:39:16.970Z,13.94
2023-01-05T02:41:59.969Z,14.18
2023-01-05T02:44:30.728Z,13.48
2023-01-05T02:47:03.378Z,14.07
2023-01-05T02:49:33.056Z,13.37
2023-01-05T02:52:02.802Z,13.90
2023-01-05T02:54:38.855Z,13.68
2023-01-05T02:57:11.835Z,13.80
2023-01-05T02:59:47.660Z,13.94
2023-01-05T03:02:21.084Z,13.46
2023-01-05T03:04:59.154Z,13.65
2023-01-05T03:07:28.970Z,13.93
2023-01-05T03:09:55.428Z,13.65
2023-01-05T03:12:50.684Z,13.33
2023-01-05T03:15:28.385Z,13.98
2023-01-05T03:17:58.315Z,13.80
2023-01-05T03:20:28.037Z,13.84
2023-01-05T03:23:15.572Z,13.15
2023-01-05T03:26:01.302Z,13.87
2023-01-05T03:28:53.940Z,14.13
2023-01-05T03:31:46.178Z,14.03
2023-01-05T03:34:45.000Z,13.82
2023-01-05T03:37:16.868Z,14.04
2023-01-05T03:39:47.092Z,13.84
2023-01-05T03:42:15.398Z,13.94
2023-01-05T03:44:45.617Z,12.84
2023-01-05T03:47:12.876Z,13.71
2023-01-05T03:49:39.304Z,13.69
2023-01-05T03:52:05.674Z,13.03
2023-01-05T03:54:32.038Z,12.87
2023-01-05T03:56:58.361Z,13.83
2023-01-05T03:59:24.710Z,13.52
2023-01-05T04:01:51.151Z,13.99
2023-01-05T04:04:17.552Z,13.85
2023-01-05T04:06:43.870Z,13.87
2023-01-05T04:09:10.252Z,13.27
2023-01-05T04:11:36.667Z,13.39
2023-01-05T04:14:03.054Z,13.01
2023-01-05T04:16:29.405Z,13.35
2023-01-05T04:18:55.805Z,13.44
2023-01-05T04:21:22.179Z,13.57
2023-01-05T04:23:48.512Z,13.36
2023-01-05T04:26:14.910Z,13.39
2023-01-05T04:28:41.271Z,13.55
2023-01-05T04:31:07.717Z,13.49
2023-01-05T04:33:34.205Z,13.68
2023-01-05T04:36:00.641Z,13.71
2023-01-05T04:38:27.075Z,12.86
2023-01-05T04:40:53.400Z,13.58
2023-01-05T04:43:19.927Z,12.86
2023-01-05T04:45:48.781Z,13.51
2023-01-05T04:48:15.874Z,12.75
2023-01-05T04:50:42.708Z,13.32
2023-01-05T04:53:09.325Z,13.68
2023-01-05T04:55:35.651Z,13.34
2023-01-05T04:58:05.529Z,13.36
2023-01-05T05:00:34.808Z,13.62
2023-01-05T05:03:02.245Z,13.09
2023-01-05T05:05:28.687Z,13.37
2023-01-05T05:07:55.118Z,13.33
2023-01-05T05:10:21.529Z,13.50
2023-01-05T05:12:47.869Z,13.66
2023-01-05T05:15:14.260Z,13.21
2023-01-05T05:17:40.744Z,13.16
2023-01-05T05:20:07.769Z,13.70
2023-01-05T05:22:34.144Z,13.64
2023-01-05T05:25:00.514Z,13.17
2023-01-05T05:27:26.902Z,13.38
2023-01-05T05:29:53.278Z,13.76
2023-01-05T05:32:19.663Z,13.69
2023-01-05T05:34:46.033Z,13.57
2023-01-05T05:37:12.377Z,13.89
2023-01-05T05:39:38.736Z,13.77
2023-01-05T05:42:05.427Z,13.67
2023-01-05T05:44:31.802Z,13.82
2023-01-05T05:46:58.185Z,13.13
2023-01-05T05:49:24.656Z,13.84
2023-01-05T05:51:54.704Z,13.41
2023-01-05T05:54:44.683Z,13.19
2023-01-05T05:57:11.167Z,13.95
2023-01-05T05:59:37.499Z,13.42
2023-01-05T06:02:03.959Z,13.34
2023-01-05T06:04:30.481Z,13.73
2023-01-05T06:06:56.835Z,13.91
2023-01-05T06:09:24.884Z,13.64
2023-01-05T06:11:52.230Z,12.92
2023-01-05T06:14:18.622Z,12.95
2023-01-05T06:16:45.861Z,13.41
2023-01-05T06:19:12.366Z,12.91
2023-01-05T06:21:38.750Z,13.39
2023-01-05T06:24:05.550Z,13.47
2023-01-05T06:26:31.952Z,12.72
2023-01-05T06:28:58.374Z,12.94
2023-01-05T06:31:24.725Z,13.92
2023-01-05T06:33:51.092Z,13.31
2023-01-05T06:36:17.545Z,13.03
2023-01-05T06:38:44.173Z,12.92
2023-01-05T06:41:11.235Z,13.21
2023-01-05T06:43:38.765Z,13.72
2023-01-05T06:46:15.364Z,13.27
2023-01-05T06:48:41.757Z,14.02
2023-01-05T06:51:08.157Z,12.88
2023-01-05T06:53:34.568Z,13.59
2023-01-05T06:56:01.008Z,14.24
2023-01-05T06:58:27.758Z,12.79
2023-01-05T07:00:54.826Z,12.93
2023-01-05T07:03:23.687Z,13.25
2023-01-05T07:05:51.905Z,13.38
2023-01-05T07:08:18.316Z,12.96
2023-01-05T07:10:44.675Z,13.42
2023-01-05T07:13:11.055Z,14.13
2023-01-05T07:15:37.460Z,12.72
2023-01-05T07:18:04.004Z,13.97
2023-01-05T07:20:30.357Z,13.93
2023-01-05T07:22:56.769Z,13.61
2023-01-05T07:25:23.220Z,13.31
2023-01-05T07:27:52.436Z,13.30
2023-01-05T07:30:18.983Z,13.40
2023-01-05T07:32:45.428Z,13.41
2023-01-05T07:35:11.783Z,13.95
2023-01-05T07:37:38.169Z,13.86
2023-01-05T07:40:05.168Z,13.02
2023-01-05T07:42:31.721Z,13.00
2023-01-05T07:44:58.102Z,13.64
2023-01-05T07:47:24.440Z,13.86
2023-01-05T07:49:50.831Z,13.83
2023-01-05T07:52:17.695Z,13.67
2023-01-05T07:54:45.227Z,12.74
2023-01-05T07:57:11.654Z,13.48
2023-01-05T07:59:38.053Z,13.33
2023-01-05T08:02:04.545Z,13.93
2023-01-05T08:04:31.041Z,13.27
2023-01-05T08:06:57.508Z,13.66
2023-01-05T08:09:42.470Z,13.38
2023-01-05T08:12:08.982Z,13.75
2023-01-05T08:14:35.342Z,14.11
2023-01-05T08:17:01.720Z,13.82
2023-01-05T08:19:28.202Z,13.84
2023-01-05T08:21:54.621Z,13.37
2023-01-05T08:24:20.988Z,13.97
2023-01-05T08:26:49.877Z,14.00
2023-01-05T08:29:16.298Z,13.98
2023-01-05T08:31:42.872Z,13.87
2023-01-05T08:34:13.865Z,14.11
2023-01-05T08:36:41.319Z,14.19
2023-01-05T08:39:10.598Z,13.81
2023-01-05T08:41:39.090Z,13.82
2023-01-05T08:44:14.228Z,13.46
2023-01-05T08:46:40.632Z,13.38
2023-01-05T08:49:09.502Z,13.46
2023-01-05T08:51:36.454Z,14.01
2023-01-05T08:54:02.975Z,13.83
2023-01-05T08:56:36.432Z,13.93
2023-01-05T08:59:05.013Z,14.01
2023-01-05T09:01:31.624Z,13.85
2023-01-05T09:03:58.822Z,13.92
2023-01-05T09:06:25.590Z,14.27
2023-01-05T09:08:51.992Z,14.31
2023-01-05T09:11:22.016Z,13.67
2023-01-05T09:13:59.864Z,14.13
2023-01-05T09:19:16.140Z,14.26
2023-01-05T09:21:43.446Z,13.58
2023-01-05T09:24:14.309Z,13.86
2023-01-05T09:26:41.789Z,14.19
2023-01-05T09:29:08.994Z,14.39
2023-01-05T09:31:35.500Z,14.62
2023-01-05T09:34:02.007Z,14.43
2023-01-05T09:36:28.391Z,13.62
2023-01-05T09:38:56.973Z,14.08
2023-01-05T09:41:26.104Z,13.05
2023-01-05T09:43:57.519Z,14.58
2023-01-05T09:46:30.872Z,12.98
2023-01-05T09:49:00.948Z,13.09
2023-01-05T09:51:28.625Z,14.09
2023-01-05T09:53:55.303Z,13.14
2023-01-05T09:57:07.264Z,14.35
2023-01-05T09:59:41.351Z,12.83
2023-01-05T10:02:18.642Z,13.55
2023-01-05T10:04:47.133Z,13.50
2023-01-05T10:07:32.144Z,13.44
2023-01-05T10:10:05.668Z,14.10
2023-01-05T10:13:02.995Z,13.57
2023-01-05T10:15:44.737Z,14.47
2023-01-05T10:18:16.001Z,13.16
2023-01-05T10:21:00.459Z,14.06
2023-01-05T10:24:08.151Z,13.86
2023-01-05T10:27:24.759Z,13.71
2023-01-05T10:30:13.193Z,14.85
2023-01-05T10:33:26.028Z,15.08
2023-01-05T10:36:28.187Z,14.59
2023-01-05T10:39:26.002Z,14.79
2023-01-05T10:42:02.737Z,14.43
2023-01-05T10:44:51.189Z,15.08
2023-01-05T10:47:18.024Z,14.67
2023-01-05T10:49:46.443Z,14.73
2023-01-05T10:52:16.612Z,15.50
2023-01-05T10:54:59.218Z,15.33
2023-01-05T10:57:39.496Z,15.19
2023-01-05T11:00:06.095Z,15.06
2023-01-05T11:02:36.035Z,14.73
2023-01-05T11:05:17.996Z,14.90
2023-01-05T11:07:56.647Z,14.03
2023-01-05T11:10:33.505Z,14.37
2023-01-05T11:13:03.473Z,14.37
2023-01-05T11:15:41.047Z,14.21
2023-01-05T11:18:24.979Z,14.24
2023-01-05T11:21:16.816Z,14.29
2023-01-05T11:23:46.007Z,14.68
2023-01-05T11:26:18.524Z,14.95
2023-01-05T11:29:14.003Z,14.64
2023-01-05T11:31:58.702Z,15.10
2023-01-05T11:34:36.263Z,15.11
2023-01-05T11:37:08.468Z,15.32
2023-01-05T11:39:41.139Z,15.06
2023-01-05T11:42:20.211Z,14.62
2023-01-05T11:45:20.588Z,15.41
2023-01-05T11:47:52.057Z,15.33
2023-01-05T11:50:25.063Z,15.10
2023-01-05T11:52:56.858Z,15.57
2023-01-05T11:55:30.417Z,15.49
2023-01-05T11:58:22.280Z,14.56
2023-01-05T12:01:01.801Z,15.34
2023-01-05T12:04:01.109Z,14.64
2023-01-05T12:06:46.895Z,14.65
2023-01-05T12:09:36.849Z,14.94
2023-01-05T12:12:14.952Z,14.97
2023-01-05T12:15:01.756Z,14.51
2023-01-05T12:17:43.537Z,15.31
2023-01-05T12:20:33.472Z,15.61
2023-01-05T12:23:32.188Z,15.74
2023-01-05T12:26:29.529Z,15.57
2023-01-05T12:35:58.288Z,15.71
2023-01-05T12:38:43.912Z,15.45
2023-01-05T12:41:24.340Z,15.31
2023-01-05T12:44:16.617Z,15.34
2023-01-05T12:46:59.869Z,15.39
2023-01-05T12:49:42.252Z,14.93
2023-01-05T12:52:17.148Z,15.17
2023-01-05T12:55:02.387Z,15.05
2023-01-05T12:57:36.688Z,15.22
2023-01-05T13:00:07.818Z,14.97
2023-01-05T13:02:41.716Z,14.69
2023-01-05T13:05:21.635Z,15.02
2023-01-05T13:07:56.660Z,14.92
2023-01-05T13:10:30.577Z,14.90
2023-01-05T13:13:20.258Z,14.21
2023-01-05T13:16:49.310Z,14.96
2023-01-05T13:19:00.291Z,15.09
2023-01-05T13:21:28.483Z,13.95
2023-01-05T13:24:10.869Z,14.58
2023-01-05T13:26:38.584Z,14.34
2023-01-05T13:29:31.945Z,14.74
2023-01-05T13:32:24.216Z,14.21
2023-01-05T13:35:09.375Z,14.90
2023-01-05T13:37:55.359Z,14.94
2023-01-05T13:40:34.320Z,15.26
2023-01-05T13:46:02.981Z,15.09
2023-01-05T13:49:03.001Z,15.33
2023-01-05T13:51:52.737Z,15.39
2023-01-05T13:55:01.395Z,15.48
2023-01-05T13:57:42.515Z,15.59
2023-01-05T14:00:32.803Z,15.45
2023-01-05T14:03:07.996Z,15.07
2023-01-05T14:05:51.858Z,15.14
2023-01-05T14:08:32.345Z,15.03
2023-01-05T14:11:12.966Z,15.07
2023-01-05T14:13:54.174Z,15.59
2023-01-05T14:16:35.668Z,15.67
2023-01-05T14:19:11.356Z,14.54
2023-01-05T14:21:49.924Z,15.43
2023-01-05T14:24:42.176Z,15.13
2023-01-05T14:27:14.286Z,14.69
2023-01-05T14:29:47.013Z,15.12
2023-01-05T14:32:40.041Z,15.32
2023-01-05T14:35:22.932Z,15.30
2023-01-05T14:38:00.244Z,15.22
2023-01-05T14:40:32.609Z,15.29
2023-01-05T14:43:01.988Z,15.05
2023-01-05T14:45:31.500Z,14.97
2023-01-05T14:48:03.225Z,14.86
2023-01-05T14:50:40.761Z,14.89
2023-01-05T14:53:10.263Z,15.31
2023-01-05T14:55:40.058Z,15.17
2023-01-05T14:58:12.081Z,15.37
2023-01-05T15:00:58.378Z,14.48
2023-01-05T15:03:36.491Z,14.64
2023-01-05T15:06:06.293Z,15.17
2023-01-05T15:08:42.228Z,14.77
2023-01-05T15:11:50.159Z,15.27
2023-01-05T15:14:32.761Z,15.23
2023-01-05T15:17:02.173Z,15.24
2023-01-05T15:20:08.288Z,15.22
2023-01-05T15:22:57.734Z,15.34
2023-01-05T15:25:31.685Z,15.27
2023-01-05T15:28:17.004Z,15.28
2023-01-05T15:31:11.412Z,15.22
2023-01-05T15:33:46.129Z,14.48
2023-01-05T15:37:04.112Z,14.41
2023-01-05T15:39:45.098Z,14.74
2023-01-05T15:42:17.188Z,14.77
2023-01-05T15:44:49.090Z,14.15
2023-01-05T15:47:18.542Z,14.64
2023-01-05T15:49:45.949Z,14.64
2023-01-05T15:52:36.298Z,14.31
2023-01-05T15:55:11.929Z,14.26
2023-01-05T15:57:38.589Z,14.12
2023-01-05T16:00:20.822Z,14.14
2023-01-05T16:02:47.211Z,13.43
2023-01-05T16:05:17.330Z,14.00
2023-01-05T16:07:54.323Z,13.92
2023-01-05T16:10:29.653Z,14.01
2023-01-05T16:13:12.253Z,13.88
2023-01-05T16:15:41.357Z,13.79
2023-01-05T16:18:14.823Z,13.20
2023-01-05T16:20:46.491Z,13.71
2023-01-05T16:23:36.848Z,13.89
2023-01-05T16:26:03.959Z,14.00
2023-01-05T16:28:30.505Z,13.76
2023-01-05T16:30:57.113Z,13.76
2023-01-05T16:33:34.454Z,13.90
2023-01-05T16:36:13.345Z,14.05
2023-01-05T16:38:41.233Z,13.97
2023-01-05T16:41:19.376Z,14.06
2023-01-05T16:43:51.907Z,14.12
2023-01-05T16:46:20.583Z,14.12
2023-01-05T16:48:51.236Z,14.10
2023-01-05T16:51:36.138Z,14.12
2023-01-05T16:54:12.417Z,13.98
2023-01-05T16:56:58.569Z,13.86
2023-01-05T16:59:40.193Z,14.09
2023-01-05T17:02:45.385Z,14.09
2023-01-05T17:05:15.686Z,14.12
2023-01-05T17:07:44.041Z,14.12
2023-01-05T17:10:20.324Z,13.50
2023-01-05T17:12:53.925Z,13.95
2023-01-05T17:15:23.871Z,13.99
2023-01-05T17:17:50.951Z,14.21
2023-01-05T17:20:17.350Z,13.96
2023-01-05T17:22:44.065Z,13.55
2023-01-05T17:25:14.158Z,14.25
2023-01-05T17:27:41.901Z,13.56
2023-01-05T17:30:13.986Z,13.34
2023-01-05T17:32:40.347Z,13.80
2023-01-05T17:37:38.307Z,14.08
2023-01-05T17:40:07.154Z,14.05
2023-01-05T17:42:42.672Z,14.18
2023-01-05T17:45:12.814Z,14.13
2023-01-05T17:47:39.394Z,13.72
2023-01-05T17:50:06.493Z,13.51
2023-01-05T17:52:32.933Z,14.22
2023-01-05T17:54:59.287Z,14.32
2023-01-05T17:57:25.694Z,14.15
2023-01-05T17:59:52.285Z,14.10
2023-01-05T18:02:18.749Z,13.91
2023-01-05T18:04:45.103Z,14.18
2023-01-05T18:07:11.463Z,14.01
2023-01-05T18:09:38.012Z,13.77
2023-01-05T18:12:05.062Z,13.87
2023-01-05T18:14:31.523Z,14.07
2023-01-05T18:16:58.063Z,13.34
2023-01-05T18:19:24.601Z,13.54
2023-01-05T18:21:50.933Z,13.98
2023-01-05T18:24:17.333Z,14.24
2023-01-05T18:26:43.871Z,14.04
2023-01-05T18:29:10.291Z,13.51
2023-01-05T18:31:38.678Z,14.19
2023-01-05T18:34:08.115Z,14.26
2023-01-05T18:36:34.510Z,14.03
2023-01-05T18:39:00.902Z,14.21
2023-01-05T18:41:27.274Z,14.17
2023-01-05T18:43:53.644Z,13.49
2023-01-05T18:46:20.053Z,13.95
2023-01-05T18:48:51.165Z,14.07
2023-01-05T18:51:18.031Z,14.04
2023-01-05T18:53:44.447Z,14.10
2023-01-05T18:56:13.740Z,13.74
2023-01-05T18:58:40.703Z,13.62
2023-01-05T19:01:13.103Z,13.51
2023-01-05T19:03:40.118Z,14.33
2023-01-05T19:06:15.688Z,14.33
2023-01-05T19:08:43.252Z,14.17
2023-01-05T19:11:18.219Z,14.22
2023-01-05T19:13:45.403Z,14.42
2023-01-05T19:16:15.117Z,13.73
2023-01-05T19:18:43.336Z,13.42
2023-01-05T19:21:09.996Z,14.52
2023-01-05T19:23:36.455Z,14.33
2023-01-05T19:26:05.355Z,13.75
2023-01-05T19:28:34.664Z,14.34
2023-01-05T19:31:11.391Z,13.64
2023-01-05T19:33:39.091Z,14.12
2023-01-05T19:36:13.488Z,13.72
2023-01-05T19:38:40.648Z,13.99
2023-01-05T19:41:19.030Z,14.68
2023-01-05T19:43:51.193Z,14.69
2023-01-05T19:46:19.649Z,14.70
2023-01-05T19:48:47.306Z,14.66
2023-01-05T19:51:16.124Z,14.71
2023-01-05T19:53:44.486Z,13.84
2023-01-05T19:56:15.614Z,14.29
2023-01-05T19:58:45.916Z,14.71
2023-01-05T20:01:17.731Z,14.23
2023-01-05T20:03:46.655Z,13.53
2023-01-05T20:06:18.377Z,14.56
2023-01-05T20:08:52.632Z,14.24
2023-01-05T20:11:20.832Z,14.82
2023-01-05T20:13:51.876Z,14.84
2023-01-05T20:16:21.778Z,14.47
2023-01-05T20:18:48.380Z,14.15
2023-01-05T20:21:14.902Z,13.58
2023-01-05T20:23:42.011Z,14.54
2023-01-05T20:26:12.842Z,14.57
2023-01-05T20:28:39.938Z,14.68
2023-01-05T20:31:23.855Z,13.95
2023-01-05T20:33:54.236Z,14.47
2023-01-05T20:36:22.347Z,14.78
2023-01-05T20:38:49.334Z,14.72
2023-01-05T20:41:22.424Z,14.86
2023-01-05T20:43:50.416Z,14.34
2023-01-05T20:46:18.989Z,14.72
2023-01-05T20:48:45.889Z,14.78
2023-01-05T20:51:14.256Z,14.78
2023-01-05T20:53:41.425Z,14.29
2023-01-05T20:56:13.325Z,14.85
2023-01-05T20:58:40.952Z,14.88
2023-01-05T21:01:10.831Z,14.34
2023-01-05T21:03:38.726Z,14.77
2023-01-05T21:06:06.868Z,14.18
2023-01-05T21:08:33.218Z,14.28
2023-01-05T21:11:01.343Z,14.38
2023-01-05T21:13:31.247Z,14.47
2023-01-05T21:16:05.599Z,14.61
2023-01-05T21:18:33.419Z,14.39
2023-01-05T21:20:59.945Z,14.84
2023-01-05T21:23:26.402Z,14.50
2023-01-05T21:26:06.797Z,14.24
2023-01-05T21:28:38.205Z,14.64
2023-01-05T21:31:10.035Z,14.84
2023-01-05T21:33:36.637Z,14.52
2023-01-05T21:36:04.568Z,14.71
2023-01-05T21:38:59.928Z,14.72
2023-01-05T21:41:17.859Z,14.07
2023-01-05T21:43:44.254Z,14.10
2023-01-05T21:46:12.010Z,14.55
2023-01-05T21:48:39.079Z,14.59
2023-01-05T21:51:24.329Z,14.57
2023-01-05T21:54:09.278Z,14.54
2023-01-05T21:56:39.911Z,14.62
2023-01-05T21:59:09.899Z,14.68
2023-01-05T22:01:38.397Z,14.44
2023-01-05T22:04:05.694Z,14.48
2023-01-05T22:06:32.289Z,13.86
2023-01-05T22:08:59.017Z,14.51
2023-01-05T22:11:25.446Z,14.21
2023-01-05T22:13:51.834Z,14.38
2023-01-05T22:16:18.237Z,14.18
2023-01-05T22:18:44.588Z,14.47
2023-01-05T22:21:10.998Z,14.56
2023-01-05T22:23:38.275Z,13.65
2023-01-05T22:26:09.968Z,14.35
2023-01-05T22:28:37.931Z,14.40
2023-01-05T22:31:16.164Z,14.05
2023-01-05T22:33:45.275Z,14.60
2023-01-05T22:36:13.716Z,14.61
2023-01-05T22:38:43.275Z,14.26
2023-01-05T22:41:12.857Z,14.15
2023-01-05T22:43:40.777Z,14.45
2023-01-05T22:46:10.287Z,14.49
2023-01-05T22:48:39.907Z,14.38
2023-01-05T22:51:09.953Z,14.07
2023-01-05T22:53:39.949Z,14.50
2023-01-05T22:56:09.161Z,13.68
2023-01-05T22:58:36.331Z,14.41
2023-01-05T23:01:20.020Z,14.29
2023-01-05T23:03:47.056Z,14.19
2023-01-05T23:06:13.847Z,14.16
2023-01-05T23:08:41.632Z,14.56
2023-01-05T23:11:10.871Z,14.06
2023-01-05T23:13:37.874Z,14.44
2023-01-05T23:16:05.596Z,14.44
2023-01-05T23:18:33.758Z,14.36
2023-01-05T23:21:02.924Z,14.26
2023-01-05T23:23:29.906Z,14.24
2023-01-05T23:25:56.340Z,14.38
2023-01-05T23:28:24.520Z,14.10
2023-01-05T23:30:53.776Z,14.50
2023-01-05T23:33:21.877Z,13.98
2023-01-05T23:35:50.932Z,14.55
2023-01-05T23:38:17.856Z,14.50
2023-01-05T23:40:49.240Z,13.95
2023-01-05T23:43:17.659Z,14.30
2023-01-05T23:45:44.514Z,14.41
2023-01-05T23:48:11.716Z,13.69
2023-01-05T23:50:43.327Z,14.30
2023-01-05T23:53:10.260Z,13.82
2023-01-05T23:55:36.858Z,14.34
2023-01-05T23:58:03.560Z,14.13
